createdAt,value
2017-12-22T00:01:02.858Z,11.16
2017-12-22T00:02:36.089Z,11.24
2017-12-22T00:04:36.440Z,11.19
2017-12-22T00:07:38.658Z,11.17
2017-12-22T00:09:17.497Z,11.19
2017-12-22T00:10:44.008Z,11.21
2017-12-22T00:12:39.679Z,11.17
2017-12-22T00:14:28.760Z,11.16
2017-12-22T00:15:17.427Z,11.17
2017-12-22T00:16:06.921Z,11.17
2017-12-22T00:16:57.174Z,11.11
2017-12-22T00:17:45.908Z,11.13
2017-12-22T00:18:34.871Z,11.13
2017-12-22T00:21:29.595Z,11.28
2017-12-22T00:22:18.771Z,11.21
2017-12-22T00:23:06.900Z,11.27
2017-12-22T00:23:55.938Z,11.2
2017-12-22T00:24:46.076Z,11.23
2017-12-22T00:25:34.802Z,11.21
2017-12-22T00:28:31.712Z,11.21
2017-12-22T00:29:20.381Z,11.16
2017-12-22T00:30:08.950Z,11.13
2017-12-22T00:30:57.783Z,11.12
2017-12-22T00:31:48.180Z,11.19
2017-12-22T00:32:36.830Z,11.16
2017-12-22T00:35:39.805Z,11.16
2017-12-22T00:37:16.861Z,11.19
2017-12-22T00:38:13.076Z,11.09
2017-12-22T00:39:52.709Z,11.11
2017-12-22T00:45:40.252Z,11.09
2017-12-22T00:46:20.539Z,11.01
2017-12-22T00:47:01.001Z,11.01
2017-12-22T00:47:41.277Z,11.02
2017-12-22T00:48:22.791Z,10.98
2017-12-22T00:49:06.729Z,11.02
2017-12-22T00:49:59.767Z,11.02
2017-12-22T00:50:54.533Z,10.95
2017-12-22T00:51:43.740Z,10.99
2017-12-22T00:52:24.271Z,11.03
2017-12-22T00:53:05.351Z,11.11
2017-12-22T00:56:17.544Z,11.16
2017-12-22T01:03:43.706Z,10.93
2017-12-22T01:05:46.587Z,10.86
2017-12-22T01:07:24.178Z,10.88
2017-12-22T01:10:16.104Z,10.81
2017-12-22T01:16:30.745Z,10.75
2017-12-22T01:17:23.984Z,10.68
2017-12-22T01:18:12.734Z,10.75
2017-12-22T01:19:04.420Z,10.69
2017-12-22T01:27:34.193Z,10.55
2017-12-22T01:29:33.200Z,10.47
2017-12-22T01:31:33.000Z,10.44
2017-12-22T01:35:24.270Z,10.62
2017-12-22T01:36:12.831Z,10.63
2017-12-22T01:37:01.907Z,10.65
2017-12-22T01:37:50.544Z,10.84
2017-12-22T01:38:39.222Z,10.72
2017-12-22T01:39:27.451Z,10.72
2017-12-22T01:41:23.992Z,10.7
2017-12-22T01:43:49.305Z,10.66
2017-12-22T01:46:03.402Z,10.6
2017-12-22T01:46:57.780Z,10.63
2017-12-22T01:48:32.617Z,10.66
2017-12-22T01:51:22.050Z,10.6
2017-12-22T01:52:11.229Z,10.54
2017-12-22T01:53:02.152Z,10.6
2017-12-22T01:54:44.185Z,10.49
2017-12-22T01:58:46.821Z,10.66
2017-12-22T01:59:38.971Z,10.6
2017-12-22T02:01:19.229Z,10.6
2017-12-22T02:02:10.249Z,10.52
2017-12-22T02:04:29.858Z,10.55
2017-12-22T02:05:19.311Z,10.55
2017-12-22T02:16:39.747Z,10.49
2017-12-22T02:18:15.903Z,10.46
2017-12-22T02:19:08.292Z,10.44
2017-12-22T02:29:05.106Z,10.36
2017-12-22T02:31:57.391Z,10.29
2017-12-22T02:35:28.788Z,10.31
2017-12-22T02:37:07.386Z,10.31
2017-12-22T02:40:44.679Z,10.28
2017-12-22T02:43:57.068Z,10.06
2017-12-22T02:44:37.853Z,10.06
2017-12-22T02:45:18.200Z,10.04
2017-12-22T02:45:58.667Z,9.96
2017-12-22T02:46:39.113Z,10.02
2017-12-22T02:47:19.418Z,10.06
2017-12-22T02:47:59.995Z,9.96
2017-12-22T02:48:40.267Z,9.98
2017-12-22T02:49:20.705Z,9.95
2017-12-22T02:50:01.104Z,10.04
2017-12-22T02:50:41.555Z,9.98
2017-12-22T02:51:22.000Z,10.04
2017-12-22T02:52:02.288Z,10.09
2017-12-22T02:52:42.745Z,10.04
2017-12-22T02:53:23.106Z,10.1
2017-12-22T02:54:03.480Z,10.09
2017-12-22T02:54:43.914Z,10.13
2017-12-22T02:55:24.273Z,10.13
2017-12-22T02:56:04.670Z,10.17
2017-12-22T02:56:45.117Z,10.16
2017-12-22T02:57:25.437Z,10.22
2017-12-22T02:58:06.198Z,10.18
2017-12-22T02:58:46.460Z,10.22
2017-12-22T02:59:26.806Z,10.17
2017-12-22T03:00:07.573Z,10.24
2017-12-22T03:00:47.820Z,10.25
2017-12-22T03:01:28.422Z,10.25
2017-12-22T03:02:08.689Z,10.26
2017-12-22T03:02:49.077Z,10.25
2017-12-22T03:03:29.449Z,10.25
2017-12-22T03:04:09.829Z,10.26
2017-12-22T03:04:50.271Z,10.22
2017-12-22T03:05:30.616Z,10.25
2017-12-22T03:06:11.023Z,10.2
2017-12-22T03:06:51.416Z,10.25
2017-12-22T03:07:31.804Z,10.2
2017-12-22T03:08:12.219Z,10.14
2017-12-22T03:08:52.668Z,10.22
2017-12-22T03:09:33.022Z,10.18
2017-12-22T03:10:13.409Z,10.17
2017-12-22T03:10:53.824Z,10.14
2017-12-22T03:11:34.320Z,10.13
2017-12-22T03:12:14.752Z,10.09
2017-12-22T03:12:55.471Z,10.14
2017-12-22T03:13:35.828Z,10.13
2017-12-22T03:14:16.284Z,10.13
2017-12-22T03:14:56.947Z,10.16
2017-12-22T03:15:37.485Z,10.22
2017-12-22T03:16:17.933Z,10.18
2017-12-22T03:16:58.292Z,10.24
2017-12-22T03:17:38.738Z,10.2
2017-12-22T03:18:19.063Z,10.18
2017-12-22T03:18:59.509Z,10.17
2017-12-22T03:19:40.094Z,10.24
2017-12-22T03:20:20.438Z,10.24
2017-12-22T03:21:00.845Z,10.26
2017-12-22T03:21:41.595Z,10.25
2017-12-22T03:22:21.834Z,10.28
2017-12-22T03:23:02.322Z,10.34
2017-12-22T03:23:42.670Z,10.26
2017-12-22T03:24:23.000Z,10.28
2017-12-22T03:25:03.372Z,10.28
2017-12-22T03:25:43.815Z,10.31
2017-12-22T03:26:24.218Z,10.35
2017-12-22T03:27:07.229Z,10.36
2017-12-22T03:27:47.636Z,10.34
2017-12-22T03:28:28.022Z,10.31
2017-12-22T03:29:08.533Z,10.32
2017-12-22T03:29:48.918Z,10.28
2017-12-22T03:30:29.334Z,10.36
2017-12-22T03:31:13.075Z,10.49
2017-12-22T03:31:53.116Z,10.46
2017-12-22T03:32:33.580Z,10.38
2017-12-22T03:33:13.885Z,10.46
2017-12-22T03:33:54.361Z,10.44
2017-12-22T03:34:34.861Z,10.49
2017-12-22T03:35:15.247Z,10.47
2017-12-22T03:35:55.623Z,10.57
2017-12-22T03:36:35.978Z,10.57
2017-12-22T03:37:16.348Z,10.62
2017-12-22T03:37:56.717Z,10.57
2017-12-22T03:38:37.245Z,10.52
2017-12-22T03:39:17.819Z,10.55
2017-12-22T03:39:58.249Z,10.57
2017-12-22T03:40:38.657Z,10.63
2017-12-22T03:41:19.096Z,10.57
2017-12-22T03:41:59.469Z,10.6
2017-12-22T03:42:39.883Z,10.52
2017-12-22T03:43:20.339Z,10.51
2017-12-22T03:44:00.791Z,10.57
2017-12-22T03:44:41.208Z,10.58
2017-12-22T03:45:21.577Z,10.58
2017-12-22T03:46:01.980Z,10.55
2017-12-22T03:46:42.438Z,10.52
2017-12-22T03:47:23.306Z,10.65
2017-12-22T03:48:04.233Z,10.66
2017-12-22T03:48:44.675Z,10.69
2017-12-22T03:49:25.886Z,10.73
2017-12-22T03:50:07.716Z,10.72
2017-12-22T03:50:48.925Z,10.76
2017-12-22T03:51:31.976Z,10.72
2017-12-22T03:52:12.610Z,10.86
2017-12-22T03:52:54.142Z,10.8
2017-12-22T03:53:35.435Z,10.81
2017-12-22T03:55:30.360Z,10.88
2017-12-22T03:57:56.138Z,10.9
2017-12-22T04:01:25.853Z,10.95
2017-12-22T04:44:44.949Z,9.8
2017-12-22T04:45:32.553Z,9.8
2017-12-22T04:46:12.989Z,9.81
2017-12-22T04:46:53.414Z,9.8
2017-12-22T04:47:33.827Z,9.77
2017-12-22T04:48:14.199Z,9.91
2017-12-22T04:48:54.583Z,9.77
2017-12-22T04:49:34.981Z,9.89
2017-12-22T04:50:15.422Z,9.78
2017-12-22T04:50:55.798Z,9.86
2017-12-22T04:51:36.203Z,9.91
2017-12-22T04:52:16.607Z,9.96
2017-12-22T04:52:57.004Z,9.98
2017-12-22T04:53:37.402Z,10.06
2017-12-22T04:54:18.070Z,10.02
2017-12-22T04:54:59.343Z,10.04
2017-12-22T04:55:40.226Z,10.1
2017-12-22T04:56:25.413Z,10.2
2017-12-22T04:57:06.748Z,10.17
2017-12-22T04:57:49.524Z,10.24
2017-12-22T04:58:30.557Z,10.22
2017-12-22T04:59:11.625Z,10.2
2017-12-22T04:59:53.846Z,10.24
2017-12-22T05:00:34.351Z,10.31
2017-12-22T05:01:15.018Z,10.39
2017-12-22T05:01:56.643Z,10.31
2017-12-22T05:02:38.173Z,10.47
2017-12-22T05:03:18.659Z,10.42
2017-12-22T05:04:00.205Z,10.46
2017-12-22T05:04:40.778Z,10.47
2017-12-22T05:05:21.576Z,10.49
2017-12-22T05:06:02.465Z,10.57
2017-12-22T05:06:43.078Z,10.58
2017-12-22T05:07:24.243Z,10.66
2017-12-22T05:08:05.637Z,10.66
2017-12-22T05:08:47.037Z,10.62
2017-12-22T05:09:27.623Z,10.69
2017-12-22T05:10:08.288Z,10.75
2017-12-22T05:10:49.049Z,10.78
2017-12-22T05:11:30.513Z,10.7
2017-12-22T05:12:11.113Z,10.83
2017-12-22T05:12:51.639Z,10.86
2017-12-22T05:13:32.799Z,10.9
2017-12-22T05:14:13.817Z,10.86
2017-12-22T05:14:54.394Z,10.81
2017-12-22T05:15:35.365Z,10.88
2017-12-22T05:16:16.715Z,10.84
2017-12-22T05:16:57.266Z,10.88
2017-12-22T05:17:40.928Z,10.87
2017-12-22T05:18:23.239Z,10.9
2017-12-22T05:19:02.908Z,10.86
2017-12-22T05:19:45.953Z,10.88
2017-12-22T05:20:27.764Z,10.93
2017-12-22T05:21:08.995Z,10.95
2017-12-22T05:21:50.414Z,10.94
2017-12-22T05:22:31.199Z,10.94
2017-12-22T05:23:12.806Z,10.99
2017-12-22T05:23:54.868Z,10.98
2017-12-22T05:24:36.546Z,10.99
2017-12-22T05:25:17.699Z,11.01
2017-12-22T05:25:57.973Z,10.98
2017-12-22T05:26:38.967Z,11.09
2017-12-22T05:27:19.828Z,11.03
2017-12-22T05:28:00.329Z,11.05
2017-12-22T05:28:41.097Z,11.12
2017-12-22T05:29:21.991Z,11.12
2017-12-22T05:30:02.605Z,11.06
2017-12-22T05:30:42.998Z,11.08
2017-12-22T05:31:23.725Z,11.05
2017-12-22T05:32:04.436Z,11.09
2017-12-22T05:32:44.777Z,11.06
2017-12-22T05:33:25.395Z,11.12
2017-12-22T05:34:05.641Z,11.16
2017-12-22T05:34:46.116Z,11.08
2017-12-22T05:35:26.678Z,11.13
2017-12-22T05:36:08.098Z,11.16
2017-12-22T05:36:48.680Z,11.17
2017-12-22T05:37:29.284Z,11.16
2017-12-22T05:38:09.882Z,11.23
2017-12-22T05:38:51.919Z,11.16
2017-12-22T05:39:31.578Z,11.23
2017-12-22T05:40:12.170Z,11.24
2017-12-22T05:40:52.755Z,11.21
2017-12-22T05:41:33.498Z,11.2
2017-12-22T05:42:14.510Z,11.21
2017-12-22T05:42:55.007Z,11.26
2017-12-22T05:43:35.425Z,11.16
2017-12-22T05:44:16.385Z,11.23
2017-12-22T05:44:56.605Z,11.16
2017-12-22T05:45:37.657Z,11.23
2017-12-22T05:46:18.944Z,11.35
2017-12-22T05:47:16.853Z,11.36
2017-12-22T05:48:00.951Z,11.35
2017-12-22T05:48:42.114Z,11.36
2017-12-22T05:49:25.532Z,11.35
2017-12-22T05:50:06.524Z,11.45
2017-12-22T05:50:53.121Z,11.46
2017-12-22T05:51:36.311Z,11.56
2017-12-22T05:52:19.289Z,11.59
2017-12-22T05:53:02.045Z,11.63
2017-12-22T05:53:43.774Z,11.57
2017-12-22T05:54:25.972Z,11.64
2017-12-22T05:55:07.018Z,11.78
2017-12-22T05:55:47.603Z,11.74
2017-12-22T05:56:30.372Z,11.77
2017-12-22T05:57:11.003Z,11.74
2017-12-22T05:58:39.125Z,11.84
2017-12-22T05:59:20.392Z,11.82
2017-12-22T06:00:00.768Z,11.85
2017-12-22T06:00:41.655Z,11.87
2017-12-22T06:01:22.016Z,11.94
2017-12-22T06:03:39.071Z,11.9
2017-12-22T06:04:30.220Z,12.03
2017-12-22T06:09:14.872Z,12.3
2017-12-22T06:10:50.963Z,12.49
2017-12-22T06:13:24.427Z,12.7
2017-12-22T06:14:04.726Z,12.74
2017-12-22T06:14:45.164Z,12.79
2017-12-22T06:15:25.849Z,12.79
2017-12-22T06:16:06.076Z,12.95
2017-12-22T06:16:46.569Z,12.96
2017-12-22T06:17:27.042Z,12.98
2017-12-22T06:18:08.998Z,12.99
2017-12-22T06:18:49.728Z,13.06
2017-12-22T06:19:30.661Z,13.01
2017-12-22T06:20:11.019Z,13.03
2017-12-22T06:22:18.356Z,13.14
2017-12-22T06:23:40.905Z,13.1
2017-12-22T06:25:17.074Z,13.17
2017-12-22T06:26:19.187Z,13.07
2017-12-22T06:27:25.090Z,13.06
2017-12-22T06:28:23.552Z,13.1
2017-12-22T06:29:15.889Z,13.1
2017-12-22T06:30:13.786Z,13.07
2017-12-22T06:31:08.039Z,13.14
2017-12-22T06:32:01.675Z,13.13
2017-12-22T06:32:55.651Z,13.16
2017-12-22T06:33:48.545Z,13.16
2017-12-22T06:34:40.937Z,13.16
2017-12-22T06:35:45.797Z,13.13
2017-12-22T06:36:40.406Z,13.25
2017-12-22T06:37:36.137Z,13.22
2017-12-22T06:38:28.309Z,13.22
2017-12-22T06:39:26.531Z,13.22
2017-12-22T06:40:20.446Z,13.19
2017-12-22T06:42:25.758Z,13.43
2017-12-22T06:43:23.063Z,13.46
2017-12-22T06:44:20.221Z,13.5
2017-12-22T06:45:27.092Z,13.53
2017-12-22T06:47:41.175Z,13.46
2017-12-22T06:49:38.037Z,13.5
2017-12-22T06:50:18.604Z,13.48
2017-12-22T06:50:59.034Z,13.44
2017-12-22T06:51:42.436Z,13.47
2017-12-22T06:53:36.838Z,13.51
2017-12-22T06:54:32.133Z,13.41
2017-12-22T06:55:27.737Z,13.47
2017-12-22T06:56:22.174Z,13.44
2017-12-22T06:57:18.136Z,13.41
2017-12-22T06:58:15.496Z,13.47
2017-12-22T06:59:08.395Z,13.55
2017-12-22T07:00:01.434Z,13.5
2017-12-22T07:00:54.867Z,13.62
2017-12-22T07:01:49.144Z,13.55
2017-12-22T07:02:43.898Z,13.66
2017-12-22T07:03:39.440Z,13.61
2017-12-22T07:04:36.622Z,13.66
2017-12-22T07:05:34.943Z,13.71
2017-12-22T07:06:28.407Z,13.69
2017-12-22T07:07:24.602Z,13.71
2017-12-22T07:08:23.024Z,13.63
2017-12-22T07:09:20.723Z,13.61
2017-12-22T07:10:20.066Z,13.65
2017-12-22T07:11:21.603Z,13.55
2017-12-22T07:12:17.427Z,13.57
2017-12-22T07:13:19.962Z,13.61
2017-12-22T07:14:16.513Z,13.61
2017-12-22T07:15:14.756Z,13.57
2017-12-22T07:16:14.584Z,13.59
2017-12-22T07:17:10.519Z,13.54
2017-12-22T07:18:12.762Z,13.53
2017-12-22T07:19:21.347Z,13.71
2017-12-22T07:20:23.935Z,13.63
2017-12-22T07:21:25.312Z,13.57
2017-12-22T07:22:26.240Z,13.61
2017-12-22T07:24:36.781Z,13.57
2017-12-22T07:25:36.988Z,13.55
2017-12-22T07:26:33.550Z,13.57
2017-12-22T07:27:34.916Z,13.59
2017-12-22T07:28:30.626Z,13.57
2017-12-22T07:29:29.274Z,13.54
2017-12-22T07:30:27.689Z,13.53
2017-12-22T07:31:27.369Z,13.62
2017-12-22T07:32:28.190Z,13.71
2017-12-22T07:33:30.696Z,13.69
2017-12-22T07:36:05.083Z,13.68
2017-12-22T07:37:01.194Z,13.59
2017-12-22T07:37:55.232Z,13.65
2017-12-22T07:38:51.759Z,13.61
2017-12-22T07:39:44.999Z,13.54
2017-12-22T07:41:48.067Z,13.72
2017-12-22T07:42:52.026Z,13.66
2017-12-22T07:44:19.944Z,13.57
2017-12-22T07:45:18.161Z,13.59
2017-12-22T07:46:29.498Z,13.66
2017-12-22T07:47:27.637Z,13.63
2017-12-22T07:48:23.056Z,13.71
2017-12-22T07:49:33.649Z,13.81
2017-12-22T07:50:26.776Z,13.93
2017-12-22T07:51:23.623Z,13.84
2017-12-22T07:52:23.486Z,13.86
2017-12-22T07:54:54.028Z,13.88
2017-12-22T07:55:53.689Z,13.87
2017-12-22T07:56:50.724Z,13.87
2017-12-22T07:58:56.384Z,13.84
2017-12-22T08:00:12.979Z,13.83
2017-12-22T08:01:18.774Z,13.86
2017-12-22T08:02:39.442Z,13.99
2017-12-22T08:03:40.882Z,13.99
2017-12-22T08:04:38.120Z,13.98
2017-12-22T08:05:41.142Z,13.87
2017-12-22T08:06:40.409Z,13.93
2017-12-22T08:08:06.621Z,13.99
2017-12-22T08:09:03.854Z,13.98
2017-12-22T08:10:12.783Z,13.94
2017-12-22T08:11:15.021Z,14.02
2017-12-22T08:12:10.746Z,13.94
2017-12-22T08:14:40.033Z,14.02
2017-12-22T08:15:29.095Z,14.09
2017-12-22T08:16:12.440Z,14.04
2017-12-22T08:20:07.272Z,13.86
2017-12-22T08:21:05.795Z,13.83
2017-12-22T08:22:00.688Z,13.83
2017-12-22T08:22:57.355Z,13.87
2017-12-22T08:23:51.465Z,13.86
2017-12-22T08:24:46.647Z,13.84
2017-12-22T08:25:44.574Z,13.87
2017-12-22T08:26:39.019Z,13.84
2017-12-22T08:27:39.174Z,13.98
2017-12-22T08:28:35.807Z,13.9
2017-12-22T08:29:33.436Z,13.98
2017-12-22T08:31:48.883Z,13.83
2017-12-22T08:32:43.156Z,13.75
2017-12-22T08:33:38.494Z,13.63
2017-12-22T08:35:44.121Z,13.73
2017-12-22T08:36:39.364Z,13.61
2017-12-22T08:37:34.509Z,13.61
2017-12-22T08:38:30.705Z,13.63
2017-12-22T08:39:24.887Z,13.57
2017-12-22T08:40:20.770Z,13.53
2017-12-22T08:41:18.064Z,13.55
2017-12-22T08:42:11.673Z,13.57
2017-12-22T08:43:07.207Z,13.59
2017-12-22T08:44:02.820Z,13.59
2017-12-22T08:45:01.338Z,13.72
2017-12-22T08:46:03.612Z,13.68
2017-12-22T08:47:02.389Z,13.75
2017-12-22T08:47:57.427Z,13.68
2017-12-22T08:48:53.680Z,13.73
2017-12-22T08:49:47.729Z,13.75
2017-12-22T08:50:43.567Z,13.68
2017-12-22T08:51:38.439Z,13.72
2017-12-22T08:52:39.612Z,13.72
2017-12-22T08:53:32.057Z,13.62
2017-12-22T08:54:30.626Z,13.57
2017-12-22T08:55:26.088Z,13.66
2017-12-22T08:56:27.535Z,13.75
2017-12-22T08:57:24.459Z,13.63
2017-12-22T08:58:18.742Z,13.63
2017-12-22T08:59:12.233Z,13.63
2017-12-22T09:00:05.120Z,13.71
2017-12-22T09:01:02.413Z,13.65
2017-12-22T09:02:02.671Z,13.62
2017-12-22T09:02:54.511Z,13.62
2017-12-22T09:03:52.123Z,13.62
2017-12-22T09:04:56.743Z,13.69
2017-12-22T09:05:52.666Z,13.69
2017-12-22T09:07:13.609Z,13.62
2017-12-22T09:08:25.437Z,13.59
2017-12-22T09:12:36.967Z,13.75
2017-12-22T09:14:13.913Z,13.63
2017-12-22T09:15:11.313Z,13.61
2017-12-22T09:16:11.412Z,13.71
2017-12-22T09:17:11.143Z,13.71
2017-12-22T09:19:06.176Z,13.61
2017-12-22T09:20:08.167Z,13.63
2017-12-22T09:21:08.397Z,13.61
2017-12-22T09:22:23.737Z,13.65
2017-12-22T09:23:25.099Z,13.54
2017-12-22T09:24:22.219Z,13.55
2017-12-22T09:25:37.853Z,13.53
2017-12-22T09:26:46.597Z,13.66
2017-12-22T09:27:49.362Z,13.73
2017-12-22T09:28:50.360Z,13.75
2017-12-22T09:29:51.462Z,13.81
2017-12-22T09:30:50.697Z,13.86
2017-12-22T09:31:50.515Z,13.75
2017-12-22T09:32:52.469Z,13.83
2017-12-22T09:33:47.495Z,13.81
2017-12-22T09:34:47.808Z,13.69
2017-12-22T09:35:58.741Z,13.79
2017-12-22T09:36:54.308Z,13.79
2017-12-22T09:39:49.009Z,13.65
2017-12-22T09:40:37.744Z,13.69
2017-12-22T09:46:15.177Z,13.61
2017-12-22T09:48:19.809Z,13.69
2017-12-22T09:49:17.329Z,13.43
2017-12-22T09:50:15.564Z,13.51
2017-12-22T09:51:14.482Z,13.59
2017-12-22T09:52:11.802Z,13.51
2017-12-22T09:53:12.339Z,13.57
2017-12-22T09:54:07.008Z,13.63
2017-12-22T09:55:06.596Z,13.63
2017-12-22T09:56:05.982Z,13.66
2017-12-22T09:57:04.791Z,13.66
2017-12-22T09:57:49.705Z,13.65
2017-12-22T10:00:17.562Z,13.69
2017-12-22T10:01:16.157Z,13.73
2017-12-22T10:02:15.292Z,13.75
2017-12-22T10:03:15.633Z,13.73
2017-12-22T10:41:34.562Z,13.44
2017-12-22T10:45:53.698Z,13.41
2017-12-22T10:51:51.210Z,13.63
2017-12-22T10:59:11.052Z,13.73
2017-12-22T11:03:55.525Z,13.86
2017-12-22T11:04:53.361Z,13.84
2017-12-22T11:05:50.512Z,13.88
2017-12-22T11:06:50.693Z,13.87
2017-12-22T11:07:59.169Z,13.88
2017-12-22T11:08:59.828Z,13.84
2017-12-22T11:14:30.008Z,13.68
2017-12-22T11:16:05.942Z,13.63
2017-12-22T11:20:44.175Z,13.75
2017-12-22T11:21:41.666Z,13.71
2017-12-22T11:22:40.650Z,13.57
2017-12-22T11:23:35.601Z,13.65
2017-12-22T11:24:30.311Z,13.71
2017-12-22T11:25:30.730Z,13.79
2017-12-22T11:26:30.597Z,13.83
2017-12-22T11:27:28.125Z,13.8
2017-12-22T11:28:29.026Z,13.72
2017-12-22T11:29:31.741Z,13.71
2017-12-22T11:35:30.085Z,13.54
2017-12-22T11:36:32.046Z,13.68
2017-12-22T11:37:34.477Z,13.69
2017-12-22T11:38:42.760Z,13.63
2017-12-22T11:39:46.645Z,13.81
2017-12-22T11:40:48.125Z,13.86
2017-12-22T11:41:51.751Z,13.96
2017-12-22T11:42:54.365Z,13.99
2017-12-22T11:43:55.706Z,14.11
2017-12-22T11:44:58.170Z,14.01
2017-12-22T11:46:07.118Z,14.12
2017-12-22T11:47:05.771Z,14.11
2017-12-22T11:48:07.880Z,14.16
2017-12-22T11:49:09.651Z,14.16
2017-12-22T11:50:16.704Z,14.13
2017-12-22T11:51:16.652Z,14.08
2017-12-22T11:52:41.395Z,14.04
2017-12-22T11:53:46.467Z,14.06
2017-12-22T11:55:37.652Z,14.06
2017-12-22T11:56:37.942Z,14.13
2017-12-22T11:57:39.625Z,13.98
2017-12-22T11:58:38.958Z,14.05
2017-12-22T11:59:41.489Z,14.06
2017-12-22T12:00:38.835Z,14.01
2017-12-22T12:01:40.954Z,13.93
2017-12-22T12:02:40.373Z,13.98
2017-12-22T12:03:39.510Z,13.96
2017-12-22T12:04:38.958Z,13.96
2017-12-22T12:05:39.129Z,14.04
2017-12-22T12:06:38.754Z,14.06
2017-12-22T12:07:36.942Z,13.98
2017-12-22T12:08:38.483Z,13.88
2017-12-22T12:09:34.366Z,13.93
2017-12-22T12:10:34.269Z,13.81
2017-12-22T12:11:32.581Z,13.9
2017-12-22T12:12:33.592Z,13.88
2017-12-22T12:13:32.762Z,13.93
2017-12-22T12:14:30.146Z,13.91
2017-12-22T12:15:29.009Z,13.96
2017-12-22T12:16:25.352Z,14.09
2017-12-22T12:17:21.292Z,14.12
2017-12-22T12:18:18.336Z,14.11
2017-12-22T12:19:16.167Z,14.04
2017-12-22T12:20:10.085Z,14.11
2017-12-22T12:21:09.329Z,14.19
2017-12-22T12:22:04.238Z,13.96
2017-12-22T12:23:03.190Z,14.09
2017-12-22T12:23:59.544Z,14.06
2017-12-22T12:24:58.011Z,14.04
2017-12-22T12:27:33.535Z,13.94
2017-12-22T12:28:13.745Z,13.98
2017-12-22T12:30:46.073Z,14.08
2017-12-22T12:31:35.470Z,14.12
2017-12-22T12:32:29.067Z,14.19
2017-12-22T12:33:15.079Z,14.09
2017-12-22T12:38:28.209Z,14.24
2017-12-22T12:39:30.858Z,14.31
2017-12-22T12:40:33.172Z,14.26
2017-12-22T12:41:39.009Z,14.3
2017-12-22T12:42:39.426Z,14.27
2017-12-22T12:43:43.286Z,14.16
2017-12-22T12:44:44.282Z,14.23
2017-12-22T12:45:54.633Z,14.27
2017-12-22T12:46:53.730Z,14.24
2017-12-22T12:47:59.411Z,14.23
2017-12-22T12:49:00.592Z,14.27
2017-12-22T12:50:02.497Z,14.31
2017-12-22T12:51:01.446Z,14.26
2017-12-22T12:52:06.657Z,14.38
2017-12-22T12:53:04.800Z,14.38
2017-12-22T12:54:03.717Z,14.34
2017-12-22T12:55:08.213Z,14.39
2017-12-22T12:56:05.709Z,14.35
2017-12-22T12:57:03.371Z,14.36
2017-12-22T12:58:04.440Z,14.3
2017-12-22T12:59:06.991Z,14.3
2017-12-22T13:00:10.520Z,14.26
2017-12-22T13:01:09.868Z,14.34
2017-12-22T13:02:11.903Z,14.34
2017-12-22T13:03:09.740Z,14.35
2017-12-22T13:04:09.647Z,14.27
2017-12-22T13:05:11.166Z,14.36
2017-12-22T13:06:09.667Z,14.26
2017-12-22T13:07:11.530Z,14.12
2017-12-22T13:08:08.122Z,14.12
2017-12-22T13:09:05.695Z,14.17
2017-12-22T13:10:03.171Z,14.27
2017-12-22T13:11:00.839Z,14.2
2017-12-22T13:11:59.884Z,14.31
2017-12-22T13:12:59.088Z,14.21
2017-12-22T13:13:57.398Z,14.13
2017-12-22T13:14:57.017Z,14.11
2017-12-22T13:15:55.170Z,14.19
2017-12-22T13:16:54.882Z,14.13
2017-12-22T13:17:55.351Z,14.13
2017-12-22T13:18:51.456Z,14.06
2017-12-22T13:19:49.394Z,14.05
2017-12-22T13:20:45.496Z,14.05
2017-12-22T13:21:42.684Z,13.99
2017-12-22T13:22:42.048Z,14.13
2017-12-22T13:23:40.174Z,14.11
2017-12-22T13:24:38.129Z,14.09
2017-12-22T13:25:37.465Z,14.11
2017-12-22T13:26:36.007Z,14.17
2017-12-22T13:27:32.178Z,14.11
2017-12-22T13:28:29.136Z,14.02
2017-12-22T13:29:29.954Z,14.04
2017-12-22T13:30:26.749Z,13.99
2017-12-22T13:31:26.883Z,13.96
2017-12-22T13:32:24.644Z,14.02
2017-12-22T13:33:19.696Z,14.06
2017-12-22T13:34:13.885Z,14.09
2017-12-22T13:34:55.960Z,14.09
2017-12-22T13:35:38.215Z,14.12
2017-12-22T13:36:19.390Z,14.11
2017-12-22T13:37:03.140Z,13.94
2017-12-22T13:37:56.684Z,13.99
2017-12-22T13:38:41.945Z,14.04
2017-12-22T13:39:39.230Z,14.06
2017-12-22T13:40:21.628Z,13.91
2017-12-22T13:41:04.058Z,13.99
2017-12-22T13:41:44.077Z,14.04
2017-12-22T13:42:25.863Z,13.93
2017-12-22T13:43:11.058Z,14.01
2017-12-22T13:43:52.948Z,14.01
2017-12-22T13:44:38.241Z,13.99
2017-12-22T13:45:20.118Z,14.09
2017-12-22T13:46:01.556Z,14.13
2017-12-22T13:46:44.810Z,14.12
2017-12-22T13:47:27.235Z,14.11
2017-12-22T13:48:08.560Z,14.11
2017-12-22T13:48:52.927Z,14.04
2017-12-22T13:49:35.218Z,14.12
2017-12-22T13:50:17.152Z,14.12
2017-12-22T13:51:01.061Z,14.02
2017-12-22T13:51:42.955Z,14.05
2017-12-22T13:52:33.062Z,14.19
2017-12-22T13:53:16.568Z,14.13
2017-12-22T13:54:00.192Z,14.17
2017-12-22T13:54:49.727Z,14.13
2017-12-22T13:55:34.300Z,14.12
2017-12-22T13:56:16.200Z,14.13
2017-12-22T13:57:01.064Z,14.19
2017-12-22T13:57:53.064Z,14.17
2017-12-22T13:58:33.453Z,14.11
2017-12-22T13:59:32.125Z,14.12
2017-12-22T14:00:27.751Z,14.11
2017-12-22T14:01:34.262Z,14.16
2017-12-22T14:02:27.187Z,14.16
2017-12-22T14:03:17.106Z,14.16
2017-12-22T14:04:00.958Z,14.16
2017-12-22T14:04:44.574Z,14.16
2017-12-22T14:05:25.802Z,14.13
2017-12-22T14:06:06.555Z,14.13
2017-12-22T14:06:48.067Z,14.13
2017-12-22T14:07:33.562Z,14.09
2017-12-22T14:08:30.293Z,14.02
2017-12-22T14:09:11.674Z,13.99
2017-12-22T14:09:52.131Z,14.06
2017-12-22T14:10:33.787Z,14.08
2017-12-22T14:11:21.600Z,14.12
2017-12-22T14:12:07.407Z,14.17
2017-12-22T14:12:48.053Z,14.16
2017-12-22T14:13:31.330Z,14.19
2017-12-22T14:14:16.036Z,14.17
2017-12-22T14:15:01.998Z,14.21
2017-12-22T14:15:50.285Z,14.27
2017-12-22T14:16:37.688Z,14.27
2017-12-22T14:17:26.181Z,14.34
2017-12-22T14:18:09.030Z,14.24
2017-12-22T14:18:53.904Z,14.2
2017-12-22T14:19:34.820Z,14.24
2017-12-22T14:20:17.367Z,14.13
2017-12-22T14:21:09.070Z,14.17
2017-12-22T14:21:50.037Z,14.21
2017-12-22T14:22:32.656Z,14.27
2017-12-22T14:23:13.782Z,14.26
2017-12-22T14:24:10.411Z,14.3
2017-12-22T14:24:52.426Z,14.31
2017-12-22T14:25:35.892Z,14.3
2017-12-22T14:26:17.717Z,14.29
2017-12-22T14:27:02.922Z,14.21
2017-12-22T14:27:46.433Z,14.26
2017-12-22T14:28:28.572Z,14.27
2017-12-22T14:29:14.220Z,14.21
2017-12-22T14:30:02.246Z,14.2
2017-12-22T14:30:59.074Z,14.12
2017-12-22T14:31:39.891Z,14.12
2017-12-22T14:32:23.011Z,14.19
2017-12-22T14:33:04.283Z,14.16
2017-12-22T14:33:45.020Z,14.13
2017-12-22T14:34:28.108Z,14.24
2017-12-22T14:35:09.804Z,14.29
2017-12-22T14:35:51.292Z,14.26
2017-12-22T14:36:34.464Z,14.38
2017-12-22T14:37:15.075Z,14.36
2017-12-22T14:37:58.327Z,14.27
2017-12-22T14:38:40.622Z,14.31
2017-12-22T14:39:22.576Z,14.29
2017-12-22T14:40:02.925Z,14.31
2017-12-22T14:40:45.577Z,14.24
2017-12-22T14:41:27.137Z,14.31
2017-12-22T14:42:11.576Z,14.24
2017-12-22T14:42:55.586Z,14.23
2017-12-22T14:43:39.472Z,14.29
2017-12-22T14:44:20.523Z,14.27
2017-12-22T14:45:04.078Z,14.34
2017-12-22T14:45:44.494Z,14.23
2017-12-22T14:46:29.560Z,14.24
2017-12-22T14:47:10.741Z,14.3
2017-12-22T14:47:54.081Z,14.29
2017-12-22T14:48:35.551Z,14.2
2017-12-22T14:49:19.338Z,14.24
2017-12-22T14:50:01.311Z,14.2
2017-12-22T14:50:41.875Z,14.21
2017-12-22T14:51:25.354Z,14.17
2017-12-22T14:52:13.537Z,14.17
2017-12-22T14:52:54.793Z,14.01
2017-12-22T14:53:38.086Z,14.02
2017-12-22T14:54:21.708Z,14.04
2017-12-22T14:55:02.151Z,13.98
2017-12-22T14:55:49.386Z,13.98
2017-12-22T14:56:33.080Z,13.98
2017-12-22T14:57:15.121Z,14.01
2017-12-22T14:57:58.410Z,13.94
2017-12-22T14:58:43.066Z,13.94
2017-12-22T14:59:24.880Z,14.02
2017-12-22T15:00:06.378Z,14.02
2017-12-22T15:00:48.493Z,14.09
2017-12-22T15:01:45.587Z,14.12
2017-12-22T15:02:25.501Z,14.16
2017-12-22T15:03:07.458Z,14.2
2017-12-22T15:03:49.583Z,14.2
2017-12-22T15:04:30.401Z,14.29
2017-12-22T15:05:11.583Z,14.24
2017-12-22T15:05:53.095Z,14.23
2017-12-22T15:06:34.808Z,14.13
2017-12-22T15:07:16.330Z,14.19
2017-12-22T15:08:07.504Z,14.12
2017-12-22T15:08:48.351Z,14.13
2017-12-22T15:09:30.085Z,14.13
2017-12-22T15:10:11.108Z,14.21
2017-12-22T15:10:50.822Z,14.09
2017-12-22T15:11:34.048Z,14.13
2017-12-22T15:12:16.585Z,14.16